Time;durP1;ratioP1;P1;durP2;ratioP2;P2;SDS_P1;SDS_P2;PMS_P1;PMS_P2;Temp;Humidity;BMP_temperature;BMP_pressure;BME280_temperature;BME280_humidity;BME280_pressure;Samples;Min_cycle;Max_cycle;Signal;HPM_P1;HPM_P2
2020/01/27 00:01:59;;;;;;;34.4;15.2;;;;;;;3.4;76.22363;939.0503;;;;
2020/01/27 00:04:31;;;;;;;32.1;14.3;;;;;;;3.36;76.28516;939.0072;;;;
2020/01/27 00:06:47;;;;;;;43.2;17.6;;;;;;;3.32;76.56836;939.0095;;;;
2020/01/27 00:09:12;;;;;;;44.5;18;;;;;;;3.21;77.15527;938.9614;;;;
2020/01/27 00:11:37;;;;;;;38.8;17;;;;;;;3.17;77.37305;938.9619;;;;
2020/01/27 00:14:02;;;;;;;37.9;15.3;;;;;;;3.16;77.59375;938.9945;;;;
2020/01/27 00:16:27;;;;;;;38.5;15.4;;;;;;;3.25;77.56543;938.892;;;;
2020/01/27 00:18:53;;;;;;;32.3;15.6;;;;;;;3.38;77.16406;938.9535;;;;
2020/01/27 00:21:18;;;;;;;35.1;14.9;;;;;;;3.5;76.73633;938.9482;;;;
2020/01/27 00:23:43;;;;;;;34.7;15.2;;;;;;;3.59;76.3125;938.8772;;;;
2020/01/27 00:26:08;;;;;;;32.3;13.7;;;;;;;3.64;75.61426;938.895;;;;
2020/01/27 00:28:33;;;;;;;26.6;11.7;;;;;;;3.6;75.55176;938.8964;;;;
2020/01/27 00:30:58;;;;;;;29.4;11.9;;;;;;;3.45;76.15527;938.9061;;;;
2020/01/27 00:33:23;;;;;;;28.5;11.7;;;;;;;3.31;76.8457;938.8839;;;;
2020/01/27 00:35:49;;;;;;;31.5;11.3;;;;;;;3.29;76.99219;938.878;;;;
2020/01/27 00:38:14;;;;;;;30.5;10.9;;;;;;;3.24;77.29688;938.8752;;;;
2020/01/27 00:40:39;;;;;;;32.1;10.7;;;;;;;3.25;77.45313;938.9014;;;;
2020/01/27 00:43:04;;;;;;;30;10.4;;;;;;;3.32;77.25488;938.8939;;;;
2020/01/27 00:45:34;;;;;;;31.6;10.3;;;;;;;3.42;76.90039;938.9285;;;;
2020/01/27 00:51:40;;;;;;;30.2;10.6;;;;;;;3.57;76.50195;938.9474;;;;
2020/01/27 00:52:45;;;;;;;29.2;10.1;;;;;;;3.65;76.08984;938.9869;;;;
2020/01/27 00:55:10;;;;;;;35.6;10.9;;;;;;;3.64;75.99609;938.992;;;;
2020/01/27 00:57:35;;;;;;;31.4;10.5;;;;;;;3.66;75.92285;938.9417;;;;
2020/01/27 01:00:00;;;;;;;31.1;10.7;;;;;;;3.74;75.8457;938.8317;;;;
2020/01/27 01:02:25;;;;;;;32.3;10.9;;;;;;;3.8;75.38477;938.8433;;;;
2020/01/27 01:04:50;;;;;;;37.3;10.1;;;;;;;3.76;75.49023;938.9278;;;;
2020/01/27 01:07:15;;;;;;;30.4;10.6;;;;;;;3.72;75.65137;938.8617;;;;
2020/01/27 01:09:41;;;;;;;29.5;9;;;;;;;3.78;75.77441;938.8268;;;;
2020/01/27 01:12:06;;;;;;;36.5;9.5;;;;;;;3.69;75.87109;938.8756;;;;
2020/01/27 01:14:31;;;;;;;28.3;8.7;;;;;;;3.55;76.30762;938.8554;;;;
2020/01/27 01:16:56;;;;;;;25;8.1;;;;;;;3.42;76.97949;938.9151;;;;
2020/01/27 01:19:21;;;;;;;26.1;6.8;;;;;;;3.47;76.7666;938.8306;;;;
2020/01/27 01:21:47;;;;;;;24.3;6.9;;;;;;;3.53;76.58301;938.8387;;;;
2020/01/27 01:24:12;;;;;;;24.6;6.9;;;;;;;3.5;76.47754;938.859;;;;
2020/01/27 01:26:37;;;;;;;27.2;7;;;;;;;3.43;76.84668;938.8295;;;;
2020/01/27 01:29:02;;;;;;;25;6.6;;;;;;;3.53;76.39258;938.8261;;;;
2020/01/27 01:31:28;;;;;;;23;6.6;;;;;;;3.58;75.84082;938.8925;;;;
2020/01/27 01:33:53;;;;;;;24.3;5.9;;;;;;;3.56;75.82617;938.8755;;;;
2020/01/27 01:36:18;;;;;;;25;6.3;;;;;;;3.61;75.35059;938.8608;;;;
2020/01/27 01:38:43;;;;;;;21.9;6.1;;;;;;;3.55;75.71191;938.8736;;;;
2020/01/27 01:43:44;;;;;;;22;6;;;;;;;3.44;75.80566;938.8395;;;;
2020/01/27 01:46:31;;;;;;;20.4;6.4;;;;;;;3.43;75.94824;938.847;;;;
2020/01/27 01:51:18;;;;;;;26.9;7;;;;;;;3.2;77.25488;938.8506;;;;
2020/01/27 01:53:25;;;;;;;26.3;6.9;;;;;;;2.91;78.66016;938.8848;;;;
2020/01/27 01:55:50;;;;;;;27.7;7.1;;;;;;;2.84;79.18555;938.8672;;;;
2020/01/27 01:58:15;;;;;;;28.6;7.8;;;;;;;2.94;78.94531;938.8137;;;;
2020/01/27 02:00:40;;;;;;;24;7.1;;;;;;;2.94;79.02441;938.8943;;;;
2020/01/27 02:03:05;;;;;;;24.3;7.2;;;;;;;2.8;79.43652;938.94;;;;
2020/01/27 02:05:30;;;;;;;27.2;7.3;;;;;;;2.68;80.00684;938.9075;;;;
2020/01/27 02:07:55;;;;;;;31.3;7.2;;;;;;;2.67;80.21777;938.9278;;;;
2020/01/27 02:11:36;;;;;;;22.1;7.1;;;;;;;2.61;80.67871;938.916;;;;
2020/01/27 02:14:01;;;;;;;28;7.6;;;;;;;2.61;80.81348;938.9294;;;;
2020/01/27 02:16:26;;;;;;;27.4;7.9;;;;;;;2.66;80.67578;938.8849;;;;
2020/01/27 02:18:51;;;;;;;25;7.5;;;;;;;2.66;80.49609;938.8564;;;;
2020/01/27 02:21:17;;;;;;;27.3;7.1;;;;;;;2.65;80.47266;938.7918;;;;
2020/01/27 02:23:42;;;;;;;22.2;7.5;;;;;;;2.71;80.29395;938.8312;;;;
2020/01/27 02:26:07;;;;;;;29.2;7.2;;;;;;;2.77;80.16992;938.7026;;;;
2020/01/27 02:28:32;;;;;;;30.1;7.8;;;;;;;2.89;79.90137;938.7495;;;;
2020/01/27 02:30:57;;;;;;;24.6;7.8;;;;;;;3.12;79.49512;938.6588;;;;
2020/01/27 02:33:22;;;;;;;26.7;7.6;;;;;;;3.29;78.31641;938.6183;;;;
2020/01/27 02:35:47;;;;;;;24.9;7.3;;;;;;;3.31;78.00391;938.6479;;;;
2020/01/27 02:38:13;;;;;;;26.7;7.5;;;;;;;3.38;77.67871;938.6181;;;;
2020/01/27 02:40:38;;;;;;;26.2;7.2;;;;;;;3.42;77.50684;938.6522;;;;
2020/01/27 02:43:03;;;;;;;26.9;6.9;;;;;;;3.3;77.67676;938.6344;;;;
2020/01/27 02:45:28;;;;;;;23.5;6.5;;;;;;;3.36;77.54199;938.6357;;;;
2020/01/27 02:47:53;;;;;;;25;7.1;;;;;;;3.48;77.24902;938.6641;;;;
2020/01/27 02:50:18;;;;;;;22.5;6.9;;;;;;;3.55;76.8584;938.6579;;;;
2020/01/27 02:52:43;;;;;;;24;6.5;;;;;;;3.59;76.81934;938.6837;;;;
2020/01/27 02:55:08;;;;;;;29.1;6.7;;;;;;;3.62;76.43262;938.645;;;;
2020/01/27 02:57:33;;;;;;;26.1;6.8;;;;;;;3.69;76.30957;938.6379;;;;
2020/01/27 02:59:58;;;;;;;28.1;6.5;;;;;;;3.4;77.16699;938.7087;;;;
2020/01/27 03:02:23;;;;;;;29.3;6.8;;;;;;;3.14;78.34473;938.7036;;;;
2020/01/27 03:04:49;;;;;;;22.3;6.9;;;;;;;2.99;79.31445;938.6802;;;;
2020/01/27 03:07:14;;;;;;;29.3;6.6;;;;;;;3.03;79.3457;938.698;;;;
2020/01/27 03:09:39;;;;;;;24.4;6.1;;;;;;;3.27;78.7041;938.7126;;;;
2020/01/27 03:12:04;;;;;;;26.3;6.5;;;;;;;3.43;78.10449;938.7344;;;;
2020/01/27 03:14:30;;;;;;;26.3;6.6;;;;;;;3.55;77.56543;938.7742;;;;
2020/01/27 03:16:55;;;;;;;28.3;6.8;;;;;;;3.59;77.71875;938.6671;;;;
2020/01/27 03:19:20;;;;;;;22.1;6.5;;;;;;;3.57;77.82715;938.7405;;;;
2020/01/27 03:21:46;;;;;;;24.9;6.9;;;;;;;3.64;77.65918;938.7731;;;;
2020/01/27 03:24:11;;;;;;;23.9;6.5;;;;;;;3.73;77.2168;938.8119;;;;
2020/01/27 03:26:36;;;;;;;26.2;7;;;;;;;3.77;77.09961;938.751;;;;
2020/01/27 03:29:01;;;;;;;28.3;6.7;;;;;;;3.81;77.0625;938.8796;;;;
2020/01/27 03:31:26;;;;;;;25.8;7.1;;;;;;;3.84;76.76367;938.8806;;;;
2020/01/27 03:33:51;;;;;;;30.1;7.1;;;;;;;3.86;76.80078;938.8237;;;;
2020/01/27 03:36:16;;;;;;;25.3;6.6;;;;;;;3.85;76.68555;938.7863;;;;
2020/01/27 03:38:41;;;;;;;23.1;6.8;;;;;;;3.79;76.89063;938.7447;;;;
2020/01/27 03:41:06;;;;;;;22.4;6.6;;;;;;;3.72;76.95605;938.6383;;;;
2020/01/27 03:43:32;;;;;;;22.6;6.3;;;;;;;3.58;77.41309;938.7117;;;;
2020/01/27 03:45:57;;;;;;;20.4;6.1;;;;;;;3.38;78.2959;938.7355;;;;
2020/01/27 03:49:10;;;;;;;18.1;5.9;;;;;;;3.32;78.58984;938.7104;;;;
2020/01/27 03:51:24;;;;;;;31;6.6;;;;;;;3.38;78.54297;938.7308;;;;
2020/01/27 03:53:14;;;;;;;27.8;6.6;;;;;;;3.49;78.09473;938.7101;;;;
2020/01/27 03:55:39;;;;;;;24.2;6.1;;;;;;;3.6;77.60742;938.6697;;;;
2020/01/27 03:58:04;;;;;;;25.4;6.6;;;;;;;3.63;77.28809;938.7445;;;;
2020/01/27 04:02:30;;;;;;;23.7;5.8;;;;;;;3.69;77.26465;938.8347;;;;
2020/01/27 04:04:55;;;;;;;25.5;6.3;;;;;;;3.72;77.21484;938.8493;;;;
2020/01/27 04:07:20;;;;;;;23.6;6.2;;;;;;;3.57;77.66992;938.8136;;;;
2020/01/27 04:09:45;;;;;;;26.4;6.5;;;;;;;3.36;78.3623;938.7679;;;;
2020/01/27 04:12:10;;;;;;;28.5;7.3;;;;;;;3.16;79.49219;938.7477;;;;
2020/01/27 04:14:35;;;;;;;23.5;6.3;;;;;;;3.12;79.82031;938.7679;;;;
2020/01/27 04:17:09;;;;;;;26.3;6.9;;;;;;;3.05;80.14355;938.7464;;;;
2020/01/27 04:19:27;;;;;;;24;6.4;;;;;;;2.96;80.53223;938.7673;;;;
2020/01/27 04:21:50;;;;;;;24;6.3;;;;;;;2.99;80.33594;938.726;;;;
2020/01/27 04:24:15;;;;;;;21.6;6.2;;;;;;;3.11;79.95215;938.7006;;;;
2020/01/27 04:26:41;;;;;;;24.8;6.5;;;;;;;3.09;79.89258;938.6763;;;;
2020/01/27 04:29:06;;;;;;;21.7;6.5;;;;;;;3.19;79.35156;938.6905;;;;
2020/01/27 04:31:31;;;;;;;23.6;7.4;;;;;;;3.34;78.90918;938.7838;;;;
2020/01/27 04:33:56;;;;;;;20.5;6.7;;;;;;;3.46;78.52441;938.7725;;;;
2020/01/27 04:36:21;;;;;;;27.2;7.8;;;;;;;3.56;78.0957;938.6881;;;;
2020/01/27 04:38:46;;;;;;;27.2;9.7;;;;;;;3.59;77.96582;938.668;;;;
2020/01/27 04:41:11;;;;;;;24.2;8.9;;;;;;;3.62;77.83691;938.7631;;;;
2020/01/27 04:43:36;;;;;;;22.9;7.3;;;;;;;3.49;78.17383;938.7258;;;;
2020/01/27 04:46:01;;;;;;;26.5;7.6;;;;;;;3.28;78.96484;938.7193;;;;
2020/01/27 04:48:27;;;;;;;25.2;7.4;;;;;;;3.24;79.19336;938.6139;;;;
2020/01/27 04:50:52;;;;;;;21.3;6.6;;;;;;;3.2;79.44336;938.7025;;;;
2020/01/27 04:53:17;;;;;;;24.3;6.7;;;;;;;3.16;79.72852;938.6635;;;;
2020/01/27 04:55:42;;;;;;;23.6;6.7;;;;;;;3.23;79.53809;938.6522;;;;
2020/01/27 04:58:07;;;;;;;24.4;6.5;;;;;;;3.28;79.5918;938.6177;;;;
2020/01/27 05:00:33;;;;;;;20.8;7;;;;;;;3.27;79.61426;938.5961;;;;
2020/01/27 05:02:58;;;;;;;20.6;6.3;;;;;;;3.26;79.68945;938.5264;;;;
2020/01/27 05:05:23;;;;;;;23.6;6.7;;;;;;;3.25;79.66504;938.493;;;;
2020/01/27 05:07:49;;;;;;;24.1;6.3;;;;;;;3.23;79.61621;938.4483;;;;
2020/01/27 05:13:23;;;;;;;30;12.3;;;;;;;3.3;79.55176;938.4847;;;;
2020/01/27 05:15:16;;;;;;;28.1;7.5;;;;;;;3.25;79.87793;938.4253;;;;
2020/01/27 05:17:36;;;;;;;31.8;8.2;;;;;;;3.25;80.27148;938.4034;;;;
2020/01/27 05:19:57;;;;;;;23.4;7.4;;;;;;;3.3;80.05664;938.347;;;;
2020/01/27 05:22:20;;;;;;;21;7.2;;;;;;;3.2;80.38574;938.3453;;;;
2020/01/27 05:24:45;;;;;;;27.3;8.5;;;;;;;3.06;80.85449;938.3616;;;;
2020/01/27 05:27:10;;;;;;;26.2;8.8;;;;;;;3.08;81.06934;938.3203;;;;
2020/01/27 05:29:35;;;;;;;27.8;8.9;;;;;;;3.21;80.64551;938.3406;;;;
2020/01/27 05:32:00;;;;;;;29.2;10.7;;;;;;;3.22;80.46777;938.3614;;;;
2020/01/27 05:34:25;;;;;;;25.8;7.9;;;;;;;3.14;80.66602;938.4233;;;;
2020/01/27 05:36:51;;;;;;;24.7;7.3;;;;;;;3.07;80.80957;938.4364;;;;
2020/01/27 05:39:16;;;;;;;23.1;6.8;;;;;;;3.11;80.64746;938.4064;;;;
2020/01/27 05:41:41;;;;;;;23.1;6.6;;;;;;;3.18;80.39355;938.4439;;;;
2020/01/27 05:44:06;;;;;;;23;6.9;;;;;;;3.23;80.25684;938.4523;;;;
2020/01/27 05:46:31;;;;;;;22.8;6.7;;;;;;;3.2;80.25098;938.3895;;;;
2020/01/27 05:48:56;;;;;;;23.5;6.7;;;;;;;3.08;80.70996;938.4651;;;;
2020/01/27 05:51:21;;;;;;;23.1;6.8;;;;;;;3;81.22363;938.4235;;;;
2020/01/27 05:53:46;;;;;;;24.7;7.2;;;;;;;2.95;81.56055;938.4726;;;;
2020/01/27 05:56:11;;;;;;;25.8;7.6;;;;;;;2.88;81.94141;938.515;;;;
2020/01/27 05:58:36;;;;;;;21.4;6.7;;;;;;;2.93;81.9375;938.5591;;;;
2020/01/27 06:01:02;;;;;;;27.9;7.5;;;;;;;2.95;81.76074;938.6054;;;;
2020/01/27 06:03:27;;;;;;;22.2;7;;;;;;;2.97;81.73438;938.5427;;;;
2020/01/27 06:05:52;;;;;;;23;7;;;;;;;3.07;81.33691;938.5986;;;;
2020/01/27 06:08:17;;;;;;;26.8;6.9;;;;;;;3.26;80.52148;938.6367;;;;
2020/01/27 06:10:42;;;;;;;30.7;7.7;;;;;;;3.42;79.78906;938.62;;;;
2020/01/27 06:13:07;;;;;;;27.2;7;;;;;;;3.53;79.30176;938.6467;;;;
2020/01/27 06:15:33;;;;;;;21.6;6.6;;;;;;;3.64;78.88379;938.6392;;;;
2020/01/27 06:17:58;;;;;;;25.2;7.6;;;;;;;3.65;78.62891;938.5885;;;;
2020/01/27 06:20:23;;;;;;;28.2;10.3;;;;;;;3.66;78.50684;938.5929;;;;
2020/01/27 06:22:48;;;;;;;30;10.3;;;;;;;3.7;78.34473;938.5247;;;;
2020/01/27 06:25:33;;;;;;;30.7;10.2;;;;;;;3.71;78.02051;938.5284;;;;
2020/01/27 06:27:58;;;;;;;26;9.1;;;;;;;3.73;78.07031;938.5266;;;;
2020/01/27 06:30:23;;;;;;;31.4;9.3;;;;;;;3.66;77.91113;938.4622;;;;
2020/01/27 06:32:48;;;;;;;32.9;12.5;;;;;;;3.48;78.90039;938.4504;;;;
2020/01/27 06:35:13;;;;;;;32.3;7.9;;;;;;;3.34;79.54883;938.4863;;;;
2020/01/27 06:37:38;;;;;;;23.3;7.8;;;;;;;3.34;79.73828;938.449;;;;
2020/01/27 06:40:04;;;;;;;24.1;7.4;;;;;;;3.34;79.69434;938.4225;;;;
2020/01/27 06:42:29;;;;;;;23.8;7.4;;;;;;;3.31;79.68652;938.4747;;;;
2020/01/27 06:44:54;;;;;;;26.1;7.7;;;;;;;3.32;79.37695;938.4092;;;;
2020/01/27 06:47:20;;;;;;;26.3;7.6;;;;;;;3.28;79.44727;938.4495;;;;
2020/01/27 06:49:45;;;;;;;25;7.4;;;;;;;3.23;79.53613;938.4827;;;;
2020/01/27 06:52:11;;;;;;;24.5;7.1;;;;;;;3.12;79.97754;938.4511;;;;
2020/01/27 06:54:36;;;;;;;24.2;7.6;;;;;;;3.14;79.86914;938.4406;;;;
2020/01/27 06:57:01;;;;;;;24.6;7.7;;;;;;;3.15;79.84863;938.5198;;;;
2020/01/27 06:59:29;;;;;;;24.5;7.5;;;;;;;3.01;80.30566;938.5082;;;;
2020/01/27 07:02:15;;;;;;;29.6;10.4;;;;;;;3.02;80.22852;938.4835;;;;
2020/01/27 07:04:16;;;;;;;29.2;10.7;;;;;;;2.89;80.93359;938.4719;;;;
2020/01/27 07:06:41;;;;;;;29.7;10.3;;;;;;;2.95;80.5625;938.4381;;;;
2020/01/27 07:09:07;;;;;;;37.6;12.1;;;;;;;2.96;80.4873;938.3961;;;;
2020/01/27 07:11:32;;;;;;;30.7;11.5;;;;;;;2.92;80.58984;938.3267;;;;
2020/01/27 07:13:57;;;;;;;30.7;10.3;;;;;;;2.86;80.80469;938.3176;;;;
2020/01/27 07:16:22;;;;;;;32.1;10.3;;;;;;;2.83;81.02051;938.35;;;;
2020/01/27 07:18:47;;;;;;;36.2;14.3;;;;;;;2.88;80.7959;938.3497;;;;
2020/01/27 07:21:13;;;;;;;31.4;12.7;;;;;;;2.8;81.5;938.3141;;;;
2020/01/27 07:23:38;;;;;;;29.2;12.2;;;;;;;2.82;81.47852;938.3134;;;;
2020/01/27 07:26:03;;;;;;;31.8;11.6;;;;;;;2.75;81.5791;938.2737;;;;
2020/01/27 07:28:28;;;;;;;33.3;11;;;;;;;2.81;81.38867;938.2039;;;;
2020/01/27 07:30:53;;;;;;;30.3;11.3;;;;;;;2.91;81.10547;938.1535;;;;
2020/01/27 07:33:18;;;;;;;29.4;11.3;;;;;;;3.14;80.22949;938.1135;;;;
2020/01/27 07:35:43;;;;;;;29;12;;;;;;;3.44;79.07129;938.1138;;;;
2020/01/27 07:38:08;;;;;;;30.5;12.8;;;;;;;3.8;77.43164;938.0792;;;;
2020/01/27 07:40:34;;;;;;;29.4;13.6;;;;;;;4.05;75.65625;938.0768;;;;
2020/01/27 07:42:59;;;;;;;35.9;16;;;;;;;3.93;75.90332;938.0717;;;;
2020/01/27 07:45:24;;;;;;;34.7;16.4;;;;;;;3.7;76.67188;937.9894;;;;
2020/01/27 07:47:50;;;;;;;37.6;16.1;;;;;;;3.45;77.98535;938.0159;;;;
2020/01/27 07:50:15;;;;;;;35;16.9;;;;;;;3.91;76.70801;938.0006;;;;
2020/01/27 07:52:40;;;;;;;33.9;14.5;;;;;;;4.4;74.22949;937.9891;;;;
2020/01/27 07:55:05;;;;;;;30.5;11.5;;;;;;;4.88;71.92578;937.9708;;;;
2020/01/27 07:57:30;;;;;;;30.4;11.5;;;;;;;5.46;69.55176;937.9908;;;;
2020/01/27 07:59:55;;;;;;;34.1;12.2;;;;;;;6.06;67.7168;937.9526;;;;
2020/01/27 08:02:20;;;;;;;28;10.9;;;;;;;6.94;64.58398;937.9465;;;;
2020/01/27 08:04:46;;;;;;;30.2;10.7;;;;;;;8.1;60.3877;937.8883;;;;
2020/01/27 08:07:11;;;;;;;23.7;9.1;;;;;;;8.81;57.16699;937.8723;;;;
2020/01/27 08:09:36;;;;;;;25.9;9.5;;;;;;;9.65;54.9082;937.8817;;;;
2020/01/27 08:12:01;;;;;;;26.7;9;;;;;;;10.22;52.81348;937.8692;;;;
2020/01/27 08:14:26;;;;;;;28.8;8.1;;;;;;;10.5;51.92285;937.8244;;;;
2020/01/27 08:16:51;;;;;;;26.5;8.1;;;;;;;10.58;51.25879;937.7406;;;;
2020/01/27 08:19:16;;;;;;;25.3;8.2;;;;;;;10.45;51.23242;937.738;;;;
2020/01/27 08:21:41;;;;;;;26.2;7.4;;;;;;;10.24;51.52637;937.7635;;;;
2020/01/27 08:24:07;;;;;;;27.1;7.4;;;;;;;10.16;51.66602;937.7487;;;;
2020/01/27 08:26:33;;;;;;;24.7;6.3;;;;;;;10.11;51.53418;937.5779;;;;
2020/01/27 08:28:58;;;;;;;25.8;7;;;;;;;10.56;51.16504;937.575;;;;
2020/01/27 08:31:47;;;;;;;31.1;7.9;;;;;;;11.04;49.07227;937.553;;;;
2020/01/27 08:38:42;;;;;;;23.1;7.3;;;;;;;10.77;49.55469;937.4557;;;;
2020/01/27 08:41:11;;;;;;;26.6;8.6;;;;;;;11.41;48.39453;937.4504;;;;
2020/01/27 08:46:02;;;;;;;30.2;10.1;;;;;;;11.7;47.17969;937.4567;;;;
2020/01/27 08:50:46;;;;;;;29.3;9.8;;;;;;;12.48;45.67969;937.4031;;;;
2020/01/27 08:53:10;;;;;;;32;9;;;;;;;11.78;46.69434;937.3823;;;;
2020/01/27 08:55:35;;;;;;;28.6;9.4;;;;;;;11.7;47.60254;937.341;;;;
2020/01/27 08:58:00;;;;;;;34.7;8.7;;;;;;;11.38;47.95508;937.2203;;;;
2020/01/27 09:00:25;;;;;;;29;8.2;;;;;;;10.86;49.06348;937.1827;;;;
2020/01/27 09:02:50;;;;;;;36.6;9.1;;;;;;;10.63;49.79199;937.2302;;;;
2020/01/27 09:05:15;;;;;;;30.4;8.6;;;;;;;10.52;50.38379;937.2338;;;;
2020/01/27 09:07:40;;;;;;;31.4;8.1;;;;;;;10.46;50.16016;937.2151;;;;
2020/01/27 09:10:05;;;;;;;25.4;7.7;;;;;;;9.76;52.50684;937.2064;;;;
2020/01/27 09:12:30;;;;;;;30.7;6.9;;;;;;;9.09;54.00684;937.2142;;;;
2020/01/27 09:14:55;;;;;;;31.9;7.1;;;;;;;8.66;55.33887;937.2274;;;;
2020/01/27 09:17:21;;;;;;;31.4;6.5;;;;;;;8.08;55.94727;937.2481;;;;
2020/01/27 09:19:46;;;;;;;31;5.9;;;;;;;8.16;56.11719;937.2582;;;;
2020/01/27 09:22:11;;;;;;;30.7;7;;;;;;;8.21;58.01953;937.2332;;;;
2020/01/27 09:24:36;;;;;;;28.3;5.8;;;;;;;8.21;56.46191;937.2264;;;;
2020/01/27 09:27:01;;;;;;;33.2;7.2;;;;;;;8.22;57.48633;937.2365;;;;
2020/01/27 09:29:26;;;;;;;35.3;8.4;;;;;;;8.17;58.75098;937.24;;;;
2020/01/27 09:31:51;;;;;;;28.3;5.8;;;;;;;7.9;58.70313;937.2217;;;;
2020/01/27 09:34:16;;;;;;;27.8;6.6;;;;;;;7.74;59.32715;937.1456;;;;
2020/01/27 09:36:41;;;;;;;30.7;7;;;;;;;7.78;59.73047;937.1764;;;;
2020/01/27 09:39:06;;;;;;;32.4;6.4;;;;;;;7.64;60.1543;937.1295;;;;
2020/01/27 09:41:31;;;;;;;31.3;7.8;;;;;;;7.67;60.77051;937.0691;;;;
2020/01/27 09:43:56;;;;;;;35.7;10.2;;;;;;;7.76;61.29395;937.1016;;;;
2020/01/27 09:46:24;;;;;;;31.3;9.6;;;;;;;7.8;62.36621;936.9977;;;;
2020/01/27 09:48:47;;;;;;;33.9;9.5;;;;;;;7.86;61.4668;937.0284;;;;
2020/01/27 09:51:29;;;;;;;32.7;7.9;;;;;;;7.69;62.14551;937.0291;;;;
2020/01/27 09:53:37;;;;;;;31.3;7.2;;;;;;;7.84;60.82813;937.0137;;;;
2020/01/27 09:56:18;;;;;;;34.7;8.8;;;;;;;7.87;60.00391;936.9722;;;;
2020/01/27 09:58:27;;;;;;;31.4;8.1;;;;;;;7.92;60.60156;936.9827;;;;
2020/01/27 10:00:52;;;;;;;32.7;8.1;;;;;;;8.05;60.23438;936.967;;;;
2020/01/27 10:03:17;;;;;;;29.1;7.2;;;;;;;8.14;60.62109;936.9177;;;;
2020/01/27 10:05:42;;;;;;;33.7;6.2;;;;;;;8.3;59.4502;936.8918;;;;
2020/01/27 10:08:07;;;;;;;28.7;6.1;;;;;;;8.45;57.22266;936.7957;;;;
2020/01/27 10:10:32;;;;;;;26.5;5.9;;;;;;;8.43;57.76465;936.6588;;;;
2020/01/27 10:15:24;;;;;;;29.2;5.4;;;;;;;8.62;56.36914;936.5856;;;;
2020/01/27 10:17:50;;;;;;;30.1;5.6;;;;;;;8.78;56.31055;936.4799;;;;
2020/01/27 10:20:14;;;;;;;26.6;4.7;;;;;;;8.91;55.71191;936.6057;;;;
2020/01/27 10:22:39;;;;;;;24.4;5.2;;;;;;;9.05;54.87793;936.5474;;;;
2020/01/27 10:25:04;;;;;;;27.7;4.5;;;;;;;9.18;53.72168;936.4075;;;;
2020/01/27 10:27:29;;;;;;;23.6;5;;;;;;;9.36;53.33496;936.3438;;;;
2020/01/27 10:29:55;;;;;;;27;5;;;;;;;9.46;53.22168;936.3594;;;;
2020/01/27 10:32:20;;;;;;;32.2;5.5;;;;;;;9.5;54.95703;936.1755;;;;
2020/01/27 10:34:45;;;;;;;23.8;5.5;;;;;;;9.44;55.42871;936.2281;;;;
2020/01/27 10:37:10;;;;;;;22.8;5.7;;;;;;;9.43;56.77148;936.2018;;;;
2020/01/27 10:39:35;;;;;;;21.5;4.8;;;;;;;9.41;55.66406;936.1436;;;;
2020/01/27 10:42:01;;;;;;;25.9;5.6;;;;;;;9.45;56.375;936.1003;;;;
2020/01/27 10:44:26;;;;;;;22.8;5.7;;;;;;;9.49;55.50293;936.0959;;;;
2020/01/27 10:46:51;;;;;;;31.1;5.8;;;;;;;9.52;56.30469;936.0915;;;;
2020/01/27 10:49:20;;;;;;;31;6;;;;;;;9.51;56.42871;936.0436;;;;
2020/01/27 10:51:46;;;;;;;29.9;5.4;;;;;;;9.5;55.45996;935.9689;;;;
2020/01/27 10:54:07;;;;;;;27.8;5.2;;;;;;;9.54;54.55273;935.8603;;;;
2020/01/27 10:56:32;;;;;;;29.4;5.9;;;;;;;9.48;56.12793;935.8359;;;;
2020/01/27 10:58:57;;;;;;;26.5;5.9;;;;;;;9.5;55.33398;935.8211;;;;
2020/01/27 11:01:23;;;;;;;30.7;6.2;;;;;;;9.45;55.9668;935.8278;;;;
2020/01/27 11:03:49;;;;;;;29.9;6.7;;;;;;;9.49;55.65137;935.7463;;;;
2020/01/27 11:06:31;;;;;;;30.3;7;;;;;;;9.59;55.07227;935.5619;;;;
2020/01/27 11:08:42;;;;;;;28.4;6.9;;;;;;;9.76;54.87695;935.5556;;;;
2020/01/27 11:11:15;;;;;;;28.4;6.6;;;;;;;9.89;54.4375;935.4138;;;;
2020/01/27 11:13:28;;;;;;;29.1;6.7;;;;;;;9.99;54.5293;935.4009;;;;
2020/01/27 11:15:53;;;;;;;26;6.7;;;;;;;10;53.63086;935.3047;;;;
2020/01/27 11:18:18;;;;;;;25.7;5.9;;;;;;;9.86;54.74121;935.2394;;;;
2020/01/27 11:20:44;;;;;;;31.4;6.9;;;;;;;9.85;54;935.2028;;;;
2020/01/27 11:23:09;;;;;;;22;5.8;;;;;;;9.94;54.125;935.2297;;;;
2020/01/27 11:25:34;;;;;;;25.8;5.9;;;;;;;9.82;54.18945;935.2042;;;;
2020/01/27 11:27:59;;;;;;;31.5;6.2;;;;;;;9.91;54.72559;935.2031;;;;
2020/01/27 11:30:24;;;;;;;29.8;5.9;;;;;;;9.87;54.35547;935.152;;;;
2020/01/27 11:32:49;;;;;;;27.1;5.7;;;;;;;9.97;54.28711;935.0986;;;;
2020/01/27 11:35:14;;;;;;;24;5.5;;;;;;;9.97;54.43652;935.058;;;;
2020/01/27 11:37:39;;;;;;;23;5.1;;;;;;;10.1;53.64258;934.9907;;;;
2020/01/27 11:40:04;;;;;;;26;5.3;;;;;;;10.13;54.3418;934.959;;;;
2020/01/27 11:42:30;;;;;;;30.6;5.1;;;;;;;10.24;54.05859;934.8942;;;;
2020/01/27 11:44:54;;;;;;;26.7;4.3;;;;;;;10.19;52.65039;934.8702;;;;
2020/01/27 11:47:20;;;;;;;25;4.6;;;;;;;10.37;51.71289;934.8574;;;;
2020/01/27 11:49:45;;;;;;;28.2;4.9;;;;;;;10.48;51.29297;934.8438;;;;
2020/01/27 11:52:10;;;;;;;26.5;5.1;;;;;;;10.68;51.40723;934.7756;;;;
2020/01/27 11:54:35;;;;;;;29.5;4.8;;;;;;;10.99;50.94238;934.7233;;;;
2020/01/27 11:57:00;;;;;;;31.9;5.2;;;;;;;11.51;49.35547;934.6561;;;;
2020/01/27 11:59:25;;;;;;;32.6;4.4;;;;;;;13.74;43.97266;934.5173;;;;
2020/01/27 12:01:59;;;;;;;21.1;4.4;;;;;;;16.89;37.18945;934.5017;;;;
2020/01/27 12:06:52;;;;;;;21.1;4.4;;;;;;;20.92;30.03613;934.3593;;;;
2020/01/27 12:09:06;;;;;;;18.1;4.2;;;;;;;22.34;27.49316;934.331;;;;
2020/01/27 12:11:31;;;;;;;22.8;4.4;;;;;;;23.1;26.12988;934.2831;;;;
2020/01/27 12:13:57;;;;;;;26.2;4.4;;;;;;;23.3;26.56445;934.2175;;;;
2020/01/27 12:16:28;;;;;;;25.5;4.7;;;;;;;23.63;26.38477;934.1717;;;;
2020/01/27 12:21:25;;;;;;;16;4;;;;;;;21.83;28.10547;934.031;;;;
2020/01/27 12:23:37;;;;;;;21.1;4.2;;;;;;;21.57;28.38184;933.9526;;;;
2020/01/27 12:26:01;;;;;;;15.2;4.2;;;;;;;20.96;29.48828;933.9304;;;;
2020/01/27 12:28:27;;;;;;;17.6;3.3;;;;;;;20.87;29.41309;933.9102;;;;
2020/01/27 12:30:52;;;;;;;17.1;3.8;;;;;;;20.55;30.03418;933.9717;;;;
2020/01/27 12:33:18;;;;;;;17.7;3.5;;;;;;;20.2;30.61816;933.9908;;;;
2020/01/27 12:35:43;;;;;;;20.7;3.7;;;;;;;19.92;31.11133;933.9778;;;;
2020/01/27 12:38:08;;;;;;;19.6;3.9;;;;;;;18.49;32.98828;933.9048;;;;
2020/01/27 12:40:33;;;;;;;18.4;3.7;;;;;;;19.37;31.70117;933.8603;;;;
2020/01/27 12:42:58;;;;;;;16.4;3.9;;;;;;;20;31.17578;933.7881;;;;
2020/01/27 12:45:23;;;;;;;17.8;3.9;;;;;;;19.88;30.98047;933.755;;;;
2020/01/27 12:47:48;;;;;;;18.6;3.9;;;;;;;20.13;30.22754;933.6265;;;;
2020/01/27 12:50:14;;;;;;;21.5;3.8;;;;;;;20.54;30.0332;933.5553;;;;
2020/01/27 12:55:12;;;;;;;21.5;3.7;;;;;;;20.46;30.53027;933.5744;;;;
2020/01/27 12:59:58;;;;;;;16;3.8;;;;;;;20.46;30.4375;933.4246;;;;
2020/01/27 13:04:56;;;;;;;19.3;3.7;;;;;;;19.76;31.46094;933.4163;;;;
2020/01/27 13:07:19;;;;;;;15.6;3.8;;;;;;;20.29;31.4873;933.2363;;;;
2020/01/27 13:09:39;;;;;;;18.7;3.9;;;;;;;20.52;30.35938;933.2787;;;;
2020/01/27 13:13:00;;;;;;;18.7;4.1;;;;;;;20.19;30.87402;933.3186;;;;
2020/01/27 13:14:25;;;;;;;15.6;3.6;;;;;;;19.84;31.58398;933.3644;;;;
2020/01/27 13:16:50;;;;;;;21.2;4.4;;;;;;;20.45;30.40137;933.3212;;;;
2020/01/27 13:19:15;;;;;;;21.8;3.9;;;;;;;20.31;30.84668;933.2726;;;;
2020/01/27 13:21:40;;;;;;;16.5;3.6;;;;;;;20.08;31.18066;933.2492;;;;
2020/01/27 13:24:05;;;;;;;22.4;4;;;;;;;19.26;31.81055;933.1595;;;;
2020/01/27 13:26:30;;;;;;;22;4.3;;;;;;;18.06;33.74512;933.1547;;;;
2020/01/27 13:28:56;;;;;;;14;3.4;;;;;;;17.85;34.89063;933.1253;;;;
2020/01/27 13:31:21;;;;;;;20.5;3.8;;;;;;;18.38;33.9209;933.0815;;;;
2020/01/27 13:33:46;;;;;;;15;3.3;;;;;;;18.81;33.72168;933.0784;;;;
2020/01/27 13:36:12;;;;;;;15.6;3.8;;;;;;;20.32;30.60254;933.0304;;;;
2020/01/27 13:38:36;;;;;;;20.4;4.4;;;;;;;21.25;29.09961;933.0129;;;;
2020/01/27 13:41:01;;;;;;;23.4;4.3;;;;;;;22;27.96387;932.9799;;;;
2020/01/27 13:43:26;;;;;;;16.8;3.7;;;;;;;22.47;27.10254;932.94;;;;
2020/01/27 13:45:52;;;;;;;16.9;4.2;;;;;;;22.35;27.20117;932.897;;;;
2020/01/27 13:48:17;;;;;;;17.7;3.8;;;;;;;21.86;27.58105;932.8233;;;;
2020/01/27 13:50:42;;;;;;;18.4;3.6;;;;;;;21.36;28.52051;932.8049;;;;
2020/01/27 13:53:07;;;;;;;18.5;3.6;;;;;;;22.12;27.53809;932.8577;;;;
2020/01/27 13:55:32;;;;;;;21;4;;;;;;;21.58;27.77441;932.8428;;;;
2020/01/27 13:57:57;;;;;;;25.9;3.9;;;;;;;21.08;28.71387;932.8055;;;;
2020/01/27 14:00:22;;;;;;;22.8;3.8;;;;;;;20.23;29.96582;932.7063;;;;
2020/01/27 14:02:47;;;;;;;22.1;4.1;;;;;;;19.24;31.4248;932.6696;;;;
2020/01/27 14:05:12;;;;;;;17.5;3.6;;;;;;;18.18;33.3125;932.6323;;;;
2020/01/27 14:07:37;;;;;;;23.2;4.3;;;;;;;17.51;34.6543;932.6367;;;;
2020/01/27 14:10:03;;;;;;;23.1;4.3;;;;;;;17;35.72656;932.6344;;;;
2020/01/27 14:12:28;;;;;;;22.7;4.2;;;;;;;16.47;36.86328;932.6883;;;;
2020/01/27 14:14:53;;;;;;;18.5;4.2;;;;;;;16.07;37.76563;932.6409;;;;
2020/01/27 14:17:18;;;;;;;20.7;3.8;;;;;;;15.54;39.06152;932.6781;;;;
2020/01/27 14:19:43;;;;;;;21.6;4.2;;;;;;;15.03;40.23828;932.7003;;;;
2020/01/27 14:22:20;;;;;;;23.6;4.3;;;;;;;14.58;41.39453;932.6312;;;;
2020/01/27 14:24:33;;;;;;;22.2;4;;;;;;;14.08;42.63672;932.6221;;;;
2020/01/27 14:26:58;;;;;;;22.6;4.2;;;;;;;13.79;43.61035;932.6116;;;;
2020/01/27 14:29:23;;;;;;;26;4.5;;;;;;;13.21;45.28613;932.6058;;;;
2020/01/27 14:31:49;;;;;;;30.9;4.6;;;;;;;12.89;46.13672;932.597;;;;
2020/01/27 14:34:14;;;;;;;23.2;4.5;;;;;;;12.8;46.4834;932.7014;;;;
2020/01/27 14:36:39;;;;;;;25.6;5.2;;;;;;;12.4;47.62207;932.7109;;;;
2020/01/27 14:39:04;;;;;;;33.6;6;;;;;;;12.08;48.29785;932.7389;;;;
2020/01/27 14:41:30;;;;;;;26.3;5.3;;;;;;;11.76;49.34863;932.6686;;;;
2020/01/27 14:43:55;;;;;;;21.5;4.8;;;;;;;11.68;49.5918;932.6051;;;;
2020/01/27 14:46:20;;;;;;;27.8;5;;;;;;;11.55;50.34375;932.6133;;;;